createdAt,value
2022-07-26T00:02:18.029Z,17.10
2022-07-26T00:04:47.318Z,16.98
2022-07-26T00:07:16.813Z,16.95
2022-07-26T00:09:48.330Z,16.97
2022-07-26T00:12:20.173Z,16.84
2022-07-26T00:14:49.100Z,16.78
2022-07-26T00:17:19.285Z,16.75
2022-07-26T00:19:48.243Z,16.74
2022-07-26T00:22:34.267Z,16.63
2022-07-26T00:25:05.043Z,16.63
2022-07-26T00:27:36.962Z,16.58
2022-07-26T00:30:08.796Z,16.50
2022-07-26T00:32:39.822Z,16.44
2022-07-26T00:35:09.574Z,16.47
2022-07-26T00:37:39.081Z,16.38
2022-07-26T00:40:09.561Z,16.38
2022-07-26T00:42:39.906Z,16.35
2022-07-26T00:45:11.489Z,16.41
2022-07-26T00:47:41.785Z,16.41
2022-07-26T00:50:18.946Z,16.41
2022-07-26T00:52:50.304Z,16.38
2022-07-26T00:55:20.985Z,16.34
2022-07-26T00:57:51.222Z,16.39
2022-07-26T01:00:26.577Z,16.41
2022-07-26T01:02:58.651Z,16.40
2022-07-26T01:05:28.266Z,16.36
2022-07-26T01:07:58.043Z,16.35
2022-07-26T01:10:30.032Z,16.32
2022-07-26T01:12:58.840Z,16.38
2022-07-26T01:15:27.619Z,16.29
2022-07-26T01:17:57.867Z,16.29
2022-07-26T01:20:26.824Z,16.32
2022-07-26T01:22:57.052Z,16.32
2022-07-26T01:25:33.606Z,16.31
2022-07-26T01:28:20.138Z,16.31
2022-07-26T01:30:50.082Z,16.29
2022-07-26T01:33:19.147Z,16.25
2022-07-26T01:35:47.991Z,16.33
2022-07-26T01:38:18.149Z,16.36
2022-07-26T01:40:48.027Z,16.27
2022-07-26T01:43:16.782Z,16.31
2022-07-26T01:45:45.997Z,16.32
2022-07-26T01:48:14.929Z,16.42
2022-07-26T01:50:44.208Z,16.47
2022-07-26T01:53:13.053Z,16.46
2022-07-26T01:55:43.297Z,16.51
2022-07-26T01:58:12.228Z,16.53
2022-07-26T02:00:41.343Z,16.66
2022-07-26T02:03:10.360Z,16.76
2022-07-26T02:05:39.289Z,16.76
2022-07-26T02:08:08.499Z,16.88
2022-07-26T02:10:57.433Z,17.11
2022-07-26T02:13:27.857Z,17.35
2022-07-26T02:16:00.190Z,17.70
2022-07-26T02:18:31.270Z,18.03
2022-07-26T02:21:01.691Z,18.33
2022-07-26T02:23:30.818Z,18.53
2022-07-26T02:26:00.532Z,18.69
2022-07-26T02:28:30.692Z,18.84
2022-07-26T02:30:59.749Z,19.00
2022-07-26T02:33:28.903Z,19.09
2022-07-26T02:35:57.677Z,19.22
2022-07-26T02:38:29.420Z,19.14
2022-07-26T02:40:58.466Z,19.09
2022-07-26T02:43:30.736Z,19.13
2022-07-26T02:46:02.294Z,19.29
2022-07-26T02:48:32.121Z,19.49
2022-07-26T02:51:01.240Z,19.78
2022-07-26T02:53:30.200Z,20.05
2022-07-26T02:55:59.081Z,20.26
2022-07-26T02:58:29.372Z,20.50
2022-07-26T03:00:58.453Z,20.62
2022-07-26T03:03:27.284Z,20.73
2022-07-26T03:05:56.103Z,20.71
2022-07-26T03:08:27.439Z,20.69
2022-07-26T03:10:56.544Z,20.64
2022-07-26T03:13:25.391Z,20.73
2022-07-26T03:15:55.676Z,20.87
2022-07-26T03:18:24.447Z,21.08
2022-07-26T03:20:53.377Z,21.20
2022-07-26T03:23:22.459Z,21.35
2022-07-26T03:25:51.599Z,21.42
2022-07-26T03:28:20.431Z,21.33
2022-07-26T03:30:49.334Z,21.17
2022-07-26T03:33:19.584Z,20.96
2022-07-26T03:35:48.383Z,20.71
2022-07-26T03:38:17.244Z,20.44
2022-07-26T03:40:46.321Z,20.26
2022-07-26T03:43:15.269Z,20.09
2022-07-26T03:45:44.306Z,20.01
2022-07-26T03:48:13.312Z,19.96
2022-07-26T03:50:44.014Z,19.86
2022-07-26T03:53:13.917Z,19.71
2022-07-26T03:56:00.341Z,19.61
2022-07-26T03:58:29.813Z,19.61
2022-07-26T04:00:58.743Z,19.55
2022-07-26T04:03:27.662Z,19.59
2022-07-26T04:05:57.918Z,19.66
2022-07-26T04:08:30.195Z,19.77
2022-07-26T04:10:59.435Z,19.80
2022-07-26T04:13:28.239Z,19.88
2022-07-26T04:15:57.166Z,19.85
2022-07-26T04:18:25.979Z,19.86
2022-07-26T04:20:55.176Z,19.89
2022-07-26T04:23:28.269Z,19.98
2022-07-26T04:25:57.082Z,20.12
2022-07-26T04:28:29.026Z,20.21
2022-07-26T04:30:58.418Z,20.32
2022-07-26T04:33:28.236Z,20.39
2022-07-26T04:35:57.082Z,20.47
2022-07-26T04:38:27.569Z,20.56
2022-07-26T04:40:58.135Z,20.63
2022-07-26T04:43:27.251Z,20.68
2022-07-26T04:45:58.730Z,20.80
2022-07-26T04:48:27.671Z,20.88
2022-07-26T04:50:56.555Z,20.91
2022-07-26T04:53:26.759Z,20.95
2022-07-26T04:55:55.613Z,21.06
2022-07-26T04:58:24.479Z,21.22
2022-07-26T05:01:10.399Z,21.26
2022-07-26T05:03:40.189Z,21.37
2022-07-26T05:06:09.270Z,21.50
2022-07-26T05:08:39.505Z,21.54
2022-07-26T05:11:08.589Z,21.55
2022-07-26T05:13:37.362Z,21.63
2022-07-26T05:16:16.545Z,21.61
2022-07-26T05:18:49.058Z,21.70
2022-07-26T05:21:19.866Z,21.75
2022-07-26T05:23:52.983Z,21.79
2022-07-26T05:26:21.817Z,21.85
2022-07-26T05:28:50.587Z,21.91
2022-07-26T05:31:19.422Z,22.01
2022-07-26T05:33:48.363Z,22.02
2022-07-26T05:36:17.200Z,22.07
2022-07-26T05:38:46.216Z,22.13
2022-07-26T05:41:16.686Z,22.18
2022-07-26T05:43:45.741Z,22.21
2022-07-26T05:46:16.139Z,22.22
2022-07-26T05:48:45.537Z,22.28
2022-07-26T05:51:14.721Z,22.38
2022-07-26T05:53:43.649Z,22.43
2022-07-26T05:56:17.356Z,22.56
2022-07-26T05:58:46.154Z,22.59
2022-07-26T06:01:15.385Z,22.75
2022-07-26T06:03:45.202Z,22.92
2022-07-26T06:06:13.991Z,23.04
2022-07-26T06:08:42.887Z,23.10
2022-07-26T06:11:11.837Z,23.17
2022-07-26T06:13:42.047Z,23.30
2022-07-26T06:16:10.895Z,23.37
2022-07-26T06:18:39.653Z,23.50
2022-07-26T06:21:09.462Z,23.66
2022-07-26T06:23:38.320Z,23.79
2022-07-26T06:26:10.564Z,23.85
2022-07-26T06:28:40.028Z,23.93
2022-07-26T06:31:10.391Z,23.86
2022-07-26T06:33:39.320Z,24.00
2022-07-26T06:36:09.107Z,24.20
2022-07-26T06:38:37.989Z,24.22
2022-07-26T06:41:08.670Z,24.29
2022-07-26T06:43:37.475Z,24.28
2022-07-26T06:46:06.549Z,24.29
2022-07-26T06:48:37.380Z,24.34
2022-07-26T06:51:10.346Z,24.49
2022-07-26T06:53:39.241Z,24.56
2022-07-26T06:56:09.019Z,24.51
2022-07-26T06:58:37.891Z,24.54
2022-07-26T07:01:07.369Z,24.51
2022-07-26T07:03:37.949Z,24.53
2022-07-26T07:06:07.350Z,24.60
2022-07-26T07:08:36.686Z,24.63
2022-07-26T07:11:05.621Z,24.63
2022-07-26T07:13:41.768Z,24.71
2022-07-26T07:16:10.773Z,24.77
2022-07-26T07:18:41.088Z,24.63
2022-07-26T07:21:10.161Z,24.62
2022-07-26T07:23:39.006Z,24.73
2022-07-26T07:26:08.131Z,24.76
2022-07-26T07:28:38.596Z,24.75
2022-07-26T07:31:09.081Z,24.74
2022-07-26T07:33:52.486Z,24.77
2022-07-26T07:36:24.823Z,24.80
2022-07-26T07:38:53.691Z,24.89
2022-07-26T07:41:25.450Z,25.02
2022-07-26T07:43:54.345Z,24.90
2022-07-26T07:46:23.280Z,24.87
2022-07-26T07:48:52.229Z,25.00
2022-07-26T07:51:21.603Z,25.12
2022-07-26T07:53:56.927Z,25.17
2022-07-26T07:56:26.473Z,25.27
2022-07-26T07:58:55.249Z,25.22
2022-07-26T08:01:24.513Z,25.29
2022-07-26T08:04:09.922Z,25.30
2022-07-26T08:06:40.906Z,25.23
2022-07-26T08:09:13.279Z,25.23
2022-07-26T08:11:44.289Z,25.18
2022-07-26T08:14:13.119Z,25.21
2022-07-26T08:16:48.402Z,25.29
2022-07-26T08:19:17.273Z,25.46
2022-07-26T08:21:47.228Z,25.46
2022-07-26T08:24:17.498Z,25.48
2022-07-26T08:26:46.397Z,25.54
2022-07-26T08:29:16.316Z,25.46
2022-07-26T08:31:45.723Z,25.62
2022-07-26T08:34:14.592Z,25.59
2022-07-26T08:37:06.927Z,25.56
2022-07-26T08:39:33.636Z,25.65
2022-07-26T08:42:04.622Z,25.69
2022-07-26T08:44:33.437Z,25.55
2022-07-26T08:47:02.286Z,25.53
2022-07-26T08:49:31.238Z,25.55
2022-07-26T08:52:00.267Z,25.56
2022-07-26T08:54:29.034Z,25.67
2022-07-26T08:56:59.329Z,25.64
2022-07-26T08:59:30.741Z,25.72
2022-07-26T09:02:02.929Z,25.77
2022-07-26T09:04:41.614Z,25.81
2022-07-26T09:07:16.132Z,25.83
2022-07-26T09:10:00.990Z,25.88
2022-07-26T09:12:34.631Z,25.92
2022-07-26T09:15:05.143Z,25.87
2022-07-26T09:17:46.948Z,26.01
2022-07-26T09:20:24.286Z,26.10
2022-07-26T09:23:01.741Z,26.20
2022-07-26T09:25:34.243Z,26.27
2022-07-26T09:28:05.917Z,26.39
2022-07-26T09:30:38.106Z,26.44
2022-07-26T09:33:08.894Z,26.52
2022-07-26T09:35:50.631Z,26.53
2022-07-26T09:38:21.171Z,26.52
2022-07-26T09:40:51.448Z,26.63
2022-07-26T09:43:24.470Z,26.58
2022-07-26T09:46:07.969Z,26.72
2022-07-26T09:49:09.376Z,26.70
2022-07-26T09:51:42.991Z,26.73
2022-07-26T09:54:13.581Z,26.72
2022-07-26T09:56:51.338Z,26.78
2022-07-26T09:59:23.425Z,26.85
2022-07-26T10:01:55.194Z,26.95
2022-07-26T10:04:24.393Z,26.96
2022-07-26T10:06:54.537Z,27.01
2022-07-26T10:09:24.267Z,27.02
2022-07-26T10:11:59.442Z,27.04
2022-07-26T10:14:45.895Z,27.10
2022-07-26T10:17:49.464Z,27.11
2022-07-26T10:20:48.482Z,27.07
2022-07-26T10:23:44.717Z,27.21
2022-07-26T10:26:43.215Z,27.15
2022-07-26T10:29:26.698Z,27.24
2022-07-26T10:32:17.648Z,27.27
2022-07-26T10:34:49.502Z,27.41
2022-07-26T10:37:29.940Z,27.55
2022-07-26T10:40:25.335Z,27.49
2022-07-26T10:42:54.262Z,27.43
2022-07-26T10:45:25.313Z,27.43
2022-07-26T10:48:17.831Z,27.33
2022-07-26T10:50:53.350Z,27.33
2022-07-26T10:53:26.997Z,27.37
2022-07-26T10:55:57.673Z,27.35
2022-07-26T10:58:28.424Z,27.15
2022-07-26T11:01:04.980Z,27.22
2022-07-26T11:03:44.376Z,27.44
2022-07-26T11:06:16.356Z,27.69
2022-07-26T11:08:48.438Z,27.87
2022-07-26T11:11:30.842Z,27.87
2022-07-26T11:14:09.042Z,27.95
2022-07-26T11:16:40.395Z,28.06
2022-07-26T11:19:19.474Z,28.20
2022-07-26T11:21:55.514Z,28.23
2022-07-26T11:24:24.509Z,28.34
2022-07-26T11:26:53.647Z,28.28
2022-07-26T11:29:38.074Z,28.30
2022-07-26T11:32:20.458Z,28.39
2022-07-26T11:35:01.209Z,28.43
2022-07-26T11:37:30.830Z,28.48
2022-07-26T11:39:59.745Z,28.41
2022-07-26T11:42:31.481Z,28.52
2022-07-26T11:45:01.775Z,28.47
2022-07-26T11:47:33.379Z,28.48
2022-07-26T11:50:14.340Z,28.46
2022-07-26T11:52:50.548Z,28.37
2022-07-26T11:55:28.651Z,28.61
2022-07-26T11:57:59.022Z,28.72
2022-07-26T12:00:28.743Z,28.71
2022-07-26T12:02:58.653Z,28.86
2022-07-26T12:05:30.987Z,29.02
2022-07-26T12:08:04.288Z,29.15
2022-07-26T12:10:33.889Z,29.20
2022-07-26T12:13:11.482Z,29.27
2022-07-26T12:15:52.147Z,29.40
2022-07-26T12:18:26.664Z,29.48
2022-07-26T12:21:06.270Z,29.31
2022-07-26T12:23:45.027Z,29.14
2022-07-26T12:26:26.678Z,28.95
2022-07-26T12:28:57.015Z,28.91
2022-07-26T12:31:31.121Z,28.91
2022-07-26T12:34:04.161Z,28.91
2022-07-26T12:36:35.785Z,28.99
2022-07-26T12:39:08.728Z,29.11
2022-07-26T12:41:40.548Z,29.31
2022-07-26T12:44:12.737Z,29.35
2022-07-26T12:46:41.978Z,29.51
2022-07-26T12:49:10.903Z,29.54
2022-07-26T12:51:41.493Z,29.49
2022-07-26T12:54:10.575Z,29.59
2022-07-26T12:56:46.408Z,29.71
2022-07-26T12:59:18.079Z,29.86
2022-07-26T13:01:47.119Z,30.04
2022-07-26T13:04:16.440Z,30.05
2022-07-26T13:06:46.859Z,29.89
2022-07-26T13:09:17.200Z,29.81
2022-07-26T13:11:46.222Z,29.60
2022-07-26T13:14:15.077Z,29.53
2022-07-26T13:16:43.941Z,29.51
2022-07-26T13:19:12.931Z,29.46
2022-07-26T13:21:41.753Z,29.54
2022-07-26T13:24:12.603Z,29.54
2022-07-26T13:26:42.458Z,29.51
2022-07-26T13:29:12.164Z,29.57
2022-07-26T13:31:51.750Z,29.61
2022-07-26T13:34:21.603Z,29.72
2022-07-26T13:36:51.249Z,29.85
2022-07-26T13:39:21.534Z,30.02
2022-07-26T13:41:50.590Z,30.16
2022-07-26T13:44:20.345Z,30.49
2022-07-26T13:46:49.268Z,30.60
2022-07-26T13:49:18.234Z,30.63
2022-07-26T13:51:59.916Z,30.61
2022-07-26T13:54:34.021Z,30.56
2022-07-26T13:57:07.744Z,30.42
2022-07-26T13:59:36.642Z,30.37
2022-07-26T14:02:05.774Z,30.37
2022-07-26T14:04:34.786Z,30.25
2022-07-26T14:07:03.864Z,30.21
2022-07-26T14:09:34.728Z,30.04
2022-07-26T14:12:03.648Z,30.06
2022-07-26T14:14:32.501Z,29.96
2022-07-26T14:17:01.402Z,30.04
2022-07-26T14:19:30.657Z,29.92
2022-07-26T14:22:00.425Z,29.89
2022-07-26T14:24:30.168Z,30.04
2022-07-26T14:27:01.973Z,30.06
2022-07-26T14:29:31.973Z,30.36
2022-07-26T14:32:00.997Z,30.57
2022-07-26T14:34:30.003Z,30.84
2022-07-26T14:36:58.965Z,31.04
2022-07-26T14:39:27.782Z,31.22
2022-07-26T14:41:56.744Z,31.33
2022-07-26T14:44:27.214Z,31.41
2022-07-26T14:46:56.275Z,31.69
2022-07-26T14:49:27.953Z,31.56
2022-07-26T14:51:57.020Z,31.35
2022-07-26T14:54:25.712Z,31.52
2022-07-26T14:56:55.741Z,31.63
2022-07-26T14:59:24.651Z,31.51
2022-07-26T15:01:55.210Z,31.51
2022-07-26T15:04:24.118Z,31.74
2022-07-26T15:06:53.036Z,32.00
2022-07-26T15:09:21.932Z,32.21
2022-07-26T15:11:50.822Z,32.26
2022-07-26T15:14:21.100Z,32.24
2022-07-26T15:16:50.044Z,32.31
2022-07-26T15:19:25.387Z,32.43
2022-07-26T15:21:55.910Z,32.28
2022-07-26T15:24:25.226Z,32.45
2022-07-26T15:26:54.021Z,32.65
2022-07-26T15:29:23.000Z,32.36
2022-07-26T15:31:51.961Z,32.37
2022-07-26T15:34:22.278Z,32.47
2022-07-26T15:36:51.111Z,32.46
2022-07-26T15:39:19.944Z,32.50
2022-07-26T15:41:52.260Z,32.50
2022-07-26T15:44:25.656Z,32.20
2022-07-26T15:46:55.091Z,31.79
2022-07-26T15:49:25.375Z,31.46
2022-07-26T15:51:54.166Z,31.19
2022-07-26T15:54:22.986Z,31.15
2022-07-26T15:56:51.819Z,31.06
2022-07-26T15:59:20.624Z,30.84
2022-07-26T16:01:50.629Z,30.77
2022-07-26T16:04:19.448Z,30.88
2022-07-26T16:06:49.755Z,31.09
2022-07-26T16:09:19.738Z,31.05
2022-07-26T16:11:50.838Z,31.06
2022-07-26T16:14:19.857Z,31.01
2022-07-26T16:16:48.795Z,30.88
2022-07-26T16:19:17.615Z,30.79
2022-07-26T16:21:46.673Z,30.80
2022-07-26T16:24:17.049Z,30.79
2022-07-26T16:26:51.312Z,30.75
2022-07-26T16:29:20.297Z,30.42
2022-07-26T16:31:50.738Z,30.17
2022-07-26T16:34:19.621Z,29.97
2022-07-26T16:36:52.320Z,29.74
2022-07-26T16:39:23.441Z,29.63
2022-07-26T16:41:52.305Z,29.59
2022-07-26T16:44:22.609Z,29.61
2022-07-26T16:46:51.871Z,29.78
2022-07-26T16:49:21.151Z,30.00
2022-07-26T16:51:50.054Z,29.94
2022-07-26T16:54:18.885Z,29.86
2022-07-26T16:56:52.088Z,29.77
2022-07-26T16:59:23.895Z,29.56
2022-07-26T17:01:53.366Z,29.39
2022-07-26T17:04:23.133Z,29.12
2022-07-26T17:07:23.206Z,28.88
2022-07-26T17:09:48.350Z,28.50
2022-07-26T17:12:19.735Z,28.34
2022-07-26T17:14:49.683Z,28.16
2022-07-26T17:17:18.494Z,28.06
2022-07-26T17:19:50.514Z,27.86
2022-07-26T17:22:19.637Z,27.69
2022-07-26T17:24:49.709Z,27.57
2022-07-26T17:27:20.016Z,27.47
2022-07-26T17:29:52.532Z,27.46
2022-07-26T17:32:21.556Z,27.48
2022-07-26T17:34:50.522Z,27.44
2022-07-26T17:37:19.470Z,27.48
2022-07-26T17:39:53.306Z,27.59
2022-07-26T17:42:24.607Z,27.83
2022-07-26T17:44:53.469Z,27.84
2022-07-26T17:47:28.919Z,27.86
2022-07-26T17:52:50.603Z,27.69
2022-07-26T17:55:20.748Z,27.50
2022-07-26T17:57:52.666Z,27.22
2022-07-26T18:00:28.640Z,27.08
2022-07-26T18:02:58.827Z,26.88
2022-07-26T18:05:34.957Z,26.69
2022-07-26T18:08:11.068Z,26.57
2022-07-26T18:10:40.473Z,26.42
2022-07-26T18:13:10.853Z,26.31
2022-07-26T18:15:41.929Z,26.19
2022-07-26T18:18:11.126Z,26.06
2022-07-26T18:20:41.354Z,25.89
2022-07-26T18:23:22.177Z,25.83
2022-07-26T18:25:53.609Z,25.65
2022-07-26T18:28:24.228Z,25.54
2022-07-26T18:30:53.676Z,25.34
2022-07-26T18:33:23.178Z,25.25
2022-07-26T18:35:52.163Z,25.14
2022-07-26T18:38:21.383Z,25.07
2022-07-26T18:40:50.310Z,25.01
2022-07-26T18:43:19.091Z,24.87
2022-07-26T18:45:50.345Z,24.80
2022-07-26T18:48:19.180Z,24.64
2022-07-26T18:50:48.480Z,24.60
2022-07-26T18:53:20.363Z,24.52
2022-07-26T18:55:49.286Z,24.41
2022-07-26T18:58:18.438Z,24.39
2022-07-26T19:00:52.237Z,24.29
2022-07-26T19:03:21.232Z,24.21
2022-07-26T19:05:51.259Z,24.12
2022-07-26T19:08:22.905Z,24.10
2022-07-26T19:11:03.148Z,23.99
2022-07-26T19:13:32.224Z,23.92
2022-07-26T19:16:02.592Z,23.84
2022-07-26T19:18:31.632Z,23.78
2022-07-26T19:21:01.384Z,23.67
2022-07-26T19:23:35.505Z,23.64
2022-07-26T19:26:07.517Z,23.60
2022-07-26T19:28:39.571Z,23.56
2022-07-26T19:31:09.965Z,23.50
2022-07-26T19:33:38.929Z,23.43
2022-07-26T19:36:08.558Z,23.37
2022-07-26T19:38:37.409Z,23.27
2022-07-26T19:41:06.394Z,23.28
2022-07-26T19:43:35.292Z,23.22
2022-07-26T19:46:09.856Z,23.18
2022-07-26T19:48:40.663Z,23.15
2022-07-26T19:51:09.610Z,23.01
2022-07-26T19:53:38.508Z,22.95
2022-07-26T19:56:09.039Z,22.90
2022-07-26T19:58:38.147Z,22.89
2022-07-26T20:01:11.167Z,22.77
2022-07-26T20:03:40.151Z,22.75
2022-07-26T20:06:13.417Z,22.75
2022-07-26T20:08:42.272Z,22.68
2022-07-26T20:11:16.188Z,22.62
2022-07-26T20:13:45.045Z,22.57
2022-07-26T20:16:15.372Z,22.55
2022-07-26T20:18:49.267Z,22.51
2022-07-26T20:21:20.717Z,22.49
2022-07-26T20:23:50.329Z,22.47
2022-07-26T20:26:19.253Z,22.39
2022-07-26T20:28:49.163Z,22.31
2022-07-26T20:31:20.817Z,22.28
2022-07-26T20:33:49.732Z,22.28
2022-07-26T20:36:18.623Z,22.23
2022-07-26T20:38:51.465Z,22.18
2022-07-26T20:41:22.038Z,22.15
2022-07-26T20:43:50.873Z,22.11
2022-07-26T20:46:21.220Z,22.06
2022-07-26T20:48:52.849Z,22.04
2022-07-26T20:51:21.982Z,22.04
2022-07-26T20:53:51.471Z,21.98
2022-07-26T20:56:20.372Z,21.94
2022-07-26T20:58:49.275Z,21.93
2022-07-26T21:01:18.823Z,21.91
2022-07-26T21:03:49.187Z,21.82
2022-07-26T21:06:18.110Z,21.82
2022-07-26T21:08:46.966Z,21.81
2022-07-26T21:11:16.072Z,21.72
2022-07-26T21:13:45.051Z,21.70
2022-07-26T21:16:14.890Z,21.73
2022-07-26T21:18:45.443Z,21.66
2022-07-26T21:21:23.453Z,21.63
2022-07-26T21:23:52.214Z,21.61
2022-07-26T21:26:24.132Z,21.59
2022-07-26T21:28:52.929Z,21.52
2022-07-26T21:31:21.693Z,21.53
2022-07-26T21:33:50.569Z,21.50
2022-07-26T21:36:19.993Z,21.45
2022-07-26T21:38:50.306Z,21.38
2022-07-26T21:41:19.422Z,21.41
2022-07-26T21:43:48.308Z,21.38
2022-07-26T21:46:17.345Z,21.41
2022-07-26T21:48:46.238Z,21.33
2022-07-26T21:51:19.999Z,21.36
2022-07-26T21:53:50.347Z,21.31
2022-07-26T21:56:19.110Z,21.31
2022-07-26T21:58:48.070Z,21.28
2022-07-26T22:01:17.485Z,21.20
2022-07-26T22:03:46.514Z,21.17
2022-07-26T22:06:18.625Z,21.10
2022-07-26T22:08:47.430Z,21.15
2022-07-26T22:11:18.033Z,21.08
2022-07-26T22:13:47.069Z,21.08
2022-07-26T22:16:19.186Z,21.06
2022-07-26T22:18:48.357Z,21.06
2022-07-26T22:21:20.036Z,21.01
2022-07-26T22:23:49.160Z,20.98
2022-07-26T22:26:21.193Z,20.96
2022-07-26T22:28:50.060Z,20.87
2022-07-26T22:31:19.073Z,20.89
2022-07-26T22:33:47.933Z,20.83
2022-07-26T22:36:17.761Z,20.76
2022-07-26T22:38:47.272Z,20.77
2022-07-26T22:41:16.104Z,20.73
2022-07-26T22:43:46.314Z,20.69
2022-07-26T22:46:15.160Z,20.71
2022-07-26T22:48:47.972Z,20.65
2022-07-26T22:51:17.335Z,20.65
2022-07-26T22:53:46.106Z,20.58
2022-07-26T22:56:17.146Z,20.52
2022-07-26T22:58:50.335Z,20.49
2022-07-26T23:01:22.428Z,20.40
2022-07-26T23:03:57.537Z,20.40
2022-07-26T23:06:31.873Z,20.34
2022-07-26T23:09:01.331Z,20.33
2022-07-26T23:11:31.704Z,20.33
2022-07-26T23:14:02.369Z,20.25
2022-07-26T23:16:31.361Z,20.21
2022-07-26T23:19:00.220Z,20.25
2022-07-26T23:21:29.288Z,20.24
2022-07-26T23:23:58.343Z,20.18
2022-07-26T23:26:27.210Z,20.20
2022-07-26T23:28:55.972Z,20.10
2022-07-26T23:31:26.140Z,20.10
2022-07-26T23:33:54.993Z,20.10
2022-07-26T23:36:25.792Z,20.10
2022-07-26T23:38:55.719Z,20.05
2022-07-26T23:41:25.892Z,20.03
2022-07-26T23:43:58.189Z,20.02
2022-07-26T23:46:28.892Z,19.99
2022-07-26T23:49:00.760Z,20.03
2022-07-26T23:51:29.701Z,20.05
2022-07-26T23:53:58.878Z,20.01
2022-07-26T23:56:27.683Z,20.05
2022-07-26T23:58:56.484Z,20.06
